Main page
METAR-TAF:

METAR-TAF

Airports :

Jacarepaguá Airport

Rio de Janeiro, Rio de Janeiro, Brazil

latitude: 22-59S, longitude: 043-22W, elevation: 3 m

Current weather observation

The report was made 48 minutes ago, at 16:00 UTC
Wind 5 kt from the South/Southwest
Temperature 30°C
Humidity 84%
Pressure 1010 hPa
Visibility 10 km or more
Few clouds at a height of 1800 ft
Scattered clouds at a height of 3000 ft
Broken clouds at a height of 10000 ft

METAR: SBJR 211600Z 21005KT 9999 FEW018 SCT030 BKN100 30/27 Q1010

Time: 13:48 (16:48 UTC)


TAF: missing

Weather observations and forecasts of more than 4000 airports (METAR and TAF reports).

The available stations are represented by yellow and red dots on the map.

Hover mouse over dot to see the name of the station.

Then click to see weather observations and forecasts.

To change the map : click on the green buttons with a black cross to zoom in, on the green button with a dash to zoom out, or on the green arrows for adjacent maps.


METAR-TAF: